Newhall, CA (91321)

12:19 PM PST on December 09, 2016 (GMT -0800)
Top of Historic 8th Street, Newhall | | Change Station

Elev 1375 ft 34.38 °N, 118.53 °W | Updated 11 seconds ago

Clear
Clear
68.7 °F
Feels Like 68.7 °F
N
1.3
Wind Variable Wind from SE
Gusts 2.5 mph

Today
High -- | Low -- °F
--% Chance of Precip.
Yesterday
High -- | Low -- °F
Precip. -- in
Pressure 30.24 in
Visibility 10.0 miles
Clouds Clear
Dew Point 45 °F
Humidity 42%
Rainfall 0.00 in
Snow Depth Not available.
6:49 AM 4:44 PM
Waxing Gibbous, 77% visible
METAR KWHP 091950Z 00000KT 10SM SKC 17/08 A3024
Pressure 30.24 in
Visibility 10.0 miles
Clouds Clear
Dew Point 45 °F
Humidity 42%
Rainfall 0.00 in
Snow Depth Not available.
6:49 AM 4:44 PM
Waxing Gibbous, 77% visible
METAR KWHP 091950Z 00000KT 10SM SKC 17/08 A3024

10-Day Weather Forecast

Almanac

Astronomy

Dec. 09, 2016 Rise Set
Actual Time
Civil Twilight
Nautical Twilight
Astronomical Twilight
Moon
Length of Visible Light
Length of Day
Tomorrow will be .
, % of the Moon is Illuminated

Today's Extremes

State Highs State Lows

Community

WunderPhotos

Upload Photos

1,956,517 photos uploaded!

WunderBlog® & News

Nearby

Air Quality

  Air Quality AQ Index Pollutant
Not available.

Snow Depth

Station Depth Elevation

Earthquake Activity

City Distance Mag. Time & Date
Minimum magnitude displayed is 2.5.

Coastal Water Temperatures

Place Temperature

Stations

Nearby Weather Stations

Station Location Temp. Windchill Dew Point Humidity Wind Precip. Elev Updated Type
                   

Watches & Warnings

There are currently no watches in effect.